Time;durP1;ratioP1;P1;durP2;ratioP2;P2;SDS_P1;SDS_P2;PMS_P1;PMS_P2;Temp;Humidity;BMP_temperature;BMP_pressure;BME280_temperature;BME280_humidity;BME280_pressure;Samples;Min_cycle;Max_cycle;Signal;HPM_P1;HPM_P2
2021/12/14 00:02:19;;;;;;;10.75;8.57;;;;;;;7.17;100.00;102545.94;6216490;23;20008;-88
2021/12/14 00:04:45;;;;;;;11.82;9.35;;;;;;;7.03;100.00;102518.44;6218417;23;20004;-88
2021/12/14 00:07:16;;;;;;;12.43;9.23;;;;;;;7.02;100.00;102510.50;6245459;23;20004;-87
2021/12/14 00:09:49;;;;;;;12.82;9.38;;;;;;;6.94;100.00;102494.19;6218416;23;20007;-87
2021/12/14 00:15:15;;;;;;;13.50;9.30;;;;;;;7.00;100.00;102510.66;6245196;23;20019;-87
2021/12/14 00:17:55;;;;;;;15.35;9.30;;;;;;;6.82;100.00;102480.94;6218379;23;20479;-88
2021/12/14 00:21:01;;;;;;;11.45;8.43;;;;;;;6.92;100.00;102493.53;6244399;23;20000;-87
2021/12/14 00:26:16;;;;;;;12.68;9.25;;;;;;;6.95;100.00;102512.97;6245123;22;20023;-87
2021/12/14 00:28:42;;;;;;;13.70;9.52;;;;;;;6.91;100.00;102498.06;6168473;23;20004;-87
2021/12/14 00:31:14;;;;;;;12.30;9.20;;;;;;;6.98;100.00;102520.75;6244997;23;20070;-88
2021/12/14 00:33:46;;;;;;;13.50;9.65;;;;;;;7.05;100.00;102534.50;6218207;23;20004;-87
2021/12/14 00:36:12;;;;;;;12.75;9.30;;;;;;;7.10;100.00;102551.09;6217990;23;20498;-87
2021/12/14 00:38:40;;;;;;;14.57;9.90;;;;;;;6.87;100.00;102512.03;6217836;23;20008;-87
2021/12/14 00:41:19;;;;;;;13.18;9.23;;;;;;;7.03;100.00;102542.75;6218098;23;20000;-87
2021/12/14 00:43:47;;;;;;;14.63;9.70;;;;;;;6.94;100.00;102540.09;6243498;23;20000;-88
2021/12/14 00:46:14;;;;;;;11.93;9.45;;;;;;;6.92;100.00;102544.78;6218486;23;20004;-87
2021/12/14 00:48:41;;;;;;;13.10;9.60;;;;;;;6.68;100.00;102503.84;6192807;23;20091;-88
2021/12/14 00:51:08;;;;;;;13.75;9.38;;;;;;;7.04;100.00;102567.88;6244832;23;20004;-88
2021/12/14 00:53:34;;;;;;;13.23;9.98;;;;;;;6.88;100.00;102548.78;6244816;23;20004;-88
2021/12/14 00:56:03;;;;;;;15.00;10.50;;;;;;;6.68;100.00;102517.34;6218031;23;20007;-87
2021/12/14 00:58:30;;;;;;;16.00;9.95;;;;;;;6.91;100.00;102560.16;6218022;23;20004;-87
2021/12/14 01:01:10;;;;;;;12.27;9.45;;;;;;;7.05;100.00;102585.78;6218003;23;20008;-88
2021/12/14 01:03:38;;;;;;;12.80;9.82;;;;;;;7.05;100.00;102580.38;6218098;23;20004;-88
2021/12/14 01:06:09;;;;;;;14.20;10.10;;;;;;;6.80;100.00;102544.97;6244913;23;20000;-88
2021/12/14 01:08:39;;;;;;;16.17;9.88;;;;;;;6.91;100.00;102553.88;6193893;23;20447;-88
2021/12/14 01:11:14;;;;;;;14.23;9.90;;;;;;;6.64;100.00;102498.91;6217927;23;20008;-88
2021/12/14 01:13:50;;;;;;;13.48;10.38;;;;;;;7.06;100.00;102562.31;6244327;23;20007;-88
2021/12/14 01:16:30;;;;;;;12.85;10.45;;;;;;;6.68;100.00;102490.38;6217690;23;20008;-88
2021/12/14 01:19:12;;;;;;;15.23;9.52;;;;;;;6.66;100.00;102499.63;6217825;23;20000;-88
2021/12/14 01:21:56;;;;;;;13.27;9.75;;;;;;;6.65;100.00;102498.75;6217812;23;20004;-88
2021/12/14 01:25:00;;;;;;;13.57;10.48;;;;;;;7.01;100.00;102570.88;6244826;23;20443;-88
2021/12/14 01:27:33;;;;;;;16.08;9.90;;;;;;;6.79;100.00;102526.25;6244680;23;20012;-88
2021/12/14 01:30:04;;;;;;;12.98;9.85;;;;;;;6.65;100.00;102492.53;6217600;23;20004;-88
2021/12/14 01:32:32;;;;;;;13.90;10.35;;;;;;;6.94;100.00;102545.47;6217705;23;20483;-88
2021/12/14 01:34:58;;;;;;;14.95;9.98;;;;;;;6.57;100.00;102474.41;6193967;23;20012;-88
2021/12/14 01:37:28;;;;;;;13.57;9.52;;;;;;;6.94;100.00;102537.38;6244754;23;20319;-88
2021/12/14 01:40:06;;;;;;;13.60;9.73;;;;;;;6.72;100.00;102504.41;6218093;23;20032;-89
2021/12/14 01:42:42;;;;;;;13.32;9.40;;;;;;;6.92;100.00;102532.13;6217880;23;20014;-88
2021/12/14 01:45:18;;;;;;;12.63;8.60;;;;;;;6.67;100.00;102506.69;6217818;23;20007;-88
2021/12/14 01:47:50;;;;;;;12.90;9.30;;;;;;;6.67;100.00;102496.78;6217327;23;20086;-88
2021/12/14 01:50:22;;;;;;;;;;;;;;;6.97;100.00;102546.03;6218348;23;20085;-88
2021/12/14 01:52:47;;;;;;;10.85;7.90;;;;;;;6.65;100.00;102500.63;6244641;23;19904;-88
2021/12/14 01:55:24;;;;;;;13.55;8.20;;;;;;;6.72;100.00;102515.22;6217637;23;20014;-88
2021/12/14 01:57:53;;;;;;;10.85;8.05;;;;;;;6.89;100.00;102529.75;6217771;23;20008;-88
2021/12/14 02:00:33;;;;;;;11.73;8.13;;;;;;;6.74;100.00;102497.00;6218410;23;20489;-88
2021/12/14 02:03:00;;;;;;;11.50;7.80;;;;;;;6.55;100.00;102467.44;6219700;23;20401;-88
2021/12/14 02:05:33;;;;;;;12.00;7.63;;;;;;;6.49;100.00;102458.09;6245956;23;20000;-88
2021/12/14 02:08:03;;;;;;;10.45;7.20;;;;;;;6.55;100.00;102465.59;6219619;23;20018;-88
2021/12/14 02:10:33;;;;;;;10.48;7.15;;;;;;;6.47;100.00;102442.06;6219612;23;19999;-88
2021/12/14 02:12:59;;;;;;;9.55;7.07;;;;;;;6.85;100.00;102494.13;6246340;23;20000;-88
2021/12/14 02:15:38;;;;;;;9.23;6.93;;;;;;;6.68;100.00;102484.13;6219278;23;20053;-89
2021/12/14 02:18:18;;;;;;;7.97;6.03;;;;;;;6.49;100.00;102444.63;6246530;23;20000;-88
2021/12/14 02:21:02;;;;;;;8.95;6.40;;;;;;;6.70;100.00;102489.38;6246392;23;20004;-89
2021/12/14 02:23:30;;;;;;;10.55;6.95;;;;;;;6.81;100.00;102502.69;6218770;23;20023;-89
2021/12/14 02:25:58;;;;;;;10.02;6.53;;;;;;;6.52;100.00;102465.06;6220563;23;20000;-89
2021/12/14 02:28:24;;;;;;;11.43;6.57;;;;;;;6.44;100.00;102449.63;6221808;23;20008;-88
2021/12/14 02:30:54;;;;;;;9.63;6.38;;;;;;;6.69;100.00;102496.63;6221694;23;20099;-89
2021/12/14 02:33:23;;;;;;;10.32;6.57;;;;;;;6.57;100.00;102476.22;6220958;23;20078;-89
2021/12/14 02:35:53;;;;;;;10.43;6.43;;;;;;;6.77;100.00;102515.59;6219348;23;20000;-89
2021/12/14 02:38:19;;;;;;;9.18;6.50;;;;;;;6.48;100.00;102468.03;6246144;23;20006;-89
2021/12/14 02:40:56;;;;;;;9.70;6.45;;;;;;;6.73;100.00;102514.22;6219137;23;20079;-88
2021/12/14 02:43:45;;;;;;;9.35;6.70;;;;;;;6.75;100.00;102527.56;6218640;23;20008;-89
2021/12/14 02:46:22;;;;;;;10.02;6.30;;;;;;;6.73;100.00;102525.00;6246131;23;20007;-88
2021/12/14 02:48:51;;;;;;;10.70;6.45;;;;;;;6.56;100.00;102490.72;6219246;23;20082;-88
2021/12/14 02:51:42;;;;;;;10.27;6.75;;;;;;;6.58;100.00;102502.22;6218995;23;20431;-88
2021/12/14 02:54:18;;;;;;;11.10;6.47;;;;;;;6.73;100.00;102526.84;6245892;23;20008;-88
2021/12/14 02:56:46;;;;;;;10.95;6.60;;;;;;;6.54;100.00;102484.63;6245516;23;20008;-88
2021/12/14 02:59:16;;;;;;;10.13;6.32;;;;;;;6.69;100.00;102504.72;6219041;23;20343;-88
2021/12/14 03:01:50;;;;;;;11.05;6.70;;;;;;;6.68;100.00;102494.91;6218997;23;20004;-88
2021/12/14 03:04:16;;;;;;;10.48;6.55;;;;;;;6.58;100.00;102469.84;6218975;23;20024;-88
2021/12/14 03:06:56;;;;;;;11.07;6.70;;;;;;;6.36;100.00;102442.25;6219059;23;20000;-87
2021/12/14 03:09:59;;;;;;;10.45;6.80;;;;;;;6.68;100.00;102492.22;6219055;23;20004;-88
2021/12/14 03:12:35;;;;;;;12.93;6.78;;;;;;;6.68;100.00;102494.91;6245464;23;20027;-88
2021/12/14 03:15:10;;;;;;;10.45;7.00;;;;;;;6.69;100.00;102488.53;6245069;23;20008;-88
2021/12/14 03:17:37;;;;;;;10.02;6.93;;;;;;;6.56;100.00;102470.00;6219378;23;20023;-88
2021/12/14 03:20:29;;;;;;;13.35;7.75;;;;;;;6.70;100.00;102479.44;6218926;23;20027;-88
2021/12/14 03:23:08;;;;;;;12.60;7.03;;;;;;;6.51;100.00;102439.94;6218640;23;20016;-87
2021/12/14 03:25:38;;;;;;;10.23;6.80;;;;;;;6.63;100.00;102468.41;6245666;23;20004;-88
2021/12/14 03:28:09;;;;;;;11.95;7.47;;;;;;;6.60;100.00;102471.41;6219036;23;20004;-88
2021/12/14 03:30:51;;;;;;;11.98;7.47;;;;;;;6.50;100.00;102465.19;6245729;23;20439;-87
2021/12/14 03:33:24;;;;;;;12.85;8.68;;;;;;;6.27;100.00;102419.72;6245507;23;20065;-88
2021/12/14 03:36:10;;;;;;;13.80;8.48;;;;;;;6.42;100.00;102451.59;6218443;23;20027;-88
2021/12/14 03:38:50;;;;;;;13.10;8.90;;;;;;;6.39;100.00;102441.97;6243925;23;20186;-88
2021/12/14 03:41:22;;;;;;;16.98;9.57;;;;;;;6.56;100.00;102458.38;6218610;23;20004;-88
2021/12/14 03:44:14;;;;;;;;;;;;;;;6.61;100.00;102462.28;6219092;23;20079;-88
2021/12/14 03:47:09;;;;;;;15.48;10.82;;;;;;;6.43;100.00;102451.44;6211720;23;20370;-89
2021/12/14 03:49:52;;;;;;;16.02;10.63;;;;;;;6.19;100.00;102419.63;6218284;23;20008;-88
2021/12/14 03:52:28;;;;;;;14.68;10.25;;;;;;;6.15;100.00;102424.47;6245418;23;20020;-88
2021/12/14 03:54:54;;;;;;;18.05;11.25;;;;;;;6.18;100.00;102444.03;6218492;23;20032;-88
2021/12/14 03:57:20;;;;;;;17.52;11.23;;;;;;;6.23;100.00;102468.69;6218562;23;20008;-88
2021/12/14 03:59:46;;;;;;;15.48;10.57;;;;;;;6.55;100.00;102518.69;6218356;23;20026;-88
2021/12/14 04:02:16;;;;;;;18.60;11.63;;;;;;;6.38;100.00;102494.19;6218375;23;20012;-88
2021/12/14 04:05:09;;;;;;;18.50;11.50;;;;;;;6.58;100.00;102531.88;6243787;22;20000;-88
2021/12/14 04:07:37;;;;;;;19.48;12.38;;;;;;;6.27;100.00;102475.50;6219075;23;20019;-88
2021/12/14 04:10:09;;;;;;;17.25;12.00;;;;;;;6.26;100.00;102473.78;6193670;23;20407;-89
2021/12/14 04:12:35;;;;;;;20.23;12.77;;;;;;;6.57;100.00;102527.47;6218422;23;20024;-87
2021/12/14 04:15:01;;;;;;;19.70;12.82;;;;;;;6.24;100.00;102483.88;6245095;23;20046;-87
2021/12/14 04:17:29;;;;;;;19.17;12.60;;;;;;;6.26;100.00;102476.47;6245202;23;20007;-87
2021/12/14 04:19:56;;;;;;;20.23;12.32;;;;;;;6.17;100.00;102458.50;6245157;23;20446;-88
2021/12/14 04:22:27;;;;;;;19.23;12.68;;;;;;;6.55;100.00;102505.19;6244794;23;20095;-88
2021/12/14 04:24:58;;;;;;;19.23;12.77;;;;;;;6.25;100.00;102464.88;6217748;23;20054;-88
2021/12/14 04:27:27;;;;;;;18.90;12.70;;;;;;;6.20;100.00;102463.59;6218152;23;20032;-88
2021/12/14 04:29:53;;;;;;;20.80;13.02;;;;;;;6.20;100.00;102466.28;6245158;23;20004;-88
2021/12/14 04:32:20;;;;;;;19.75;12.88;;;;;;;6.55;100.00;102521.38;6218101;23;20455;-88
2021/12/14 04:34:48;;;;;;;19.40;12.90;;;;;;;6.43;100.00;102499.16;6244966;23;20046;-87
2021/12/14 04:37:16;;;;;;;19.52;12.90;;;;;;;6.28;100.00;102471.81;6218046;23;20039;-88
2021/12/14 04:39:46;;;;;;;20.35;13.82;;;;;;;6.57;100.00;102514.84;6217949;23;20003;-87
2021/12/14 04:53:43;;;;;;;20.95;14.35;;;;;;;6.54;100.00;102492.72;6245107;23;20457;-88
2021/12/14 04:56:18;;;;;;;20.38;13.27;;;;;;;6.41;100.00;102472.34;6218033;23;20083;-88
2021/12/14 04:58:48;;;;;;;21.38;14.07;;;;;;;6.32;100.00;102457.88;6244474;23;20027;-88
2021/12/14 05:01:15;;;;;;;21.35;14.40;;;;;;;6.34;100.00;102482.00;6218139;23;20008;-88
2021/12/14 05:04:15;;;;;;;20.75;14.05;;;;;;;6.56;100.00;102501.50;6218342;23;20015;-88
2021/12/14 05:06:49;;;;;;;22.52;13.55;;;;;;;6.35;100.00;102481.00;6196082;23;20011;-88
2021/12/14 05:09:51;;;;;;;21.10;14.00;;;;;;;6.24;100.00;102446.16;6196880;23;20513;-88
2021/12/14 05:12:12;;;;;;;22.85;14.70;;;;;;;6.53;100.00;102496.44;6237607;23;20501;-88
2021/12/14 05:14:41;;;;;;;22.20;14.45;;;;;;;6.47;100.00;102496.00;6217745;23;20000;-88
2021/12/14 05:17:12;;;;;;;22.48;14.73;;;;;;;6.31;100.00;102453.47;6244269;23;20038;-88
2021/12/14 05:19:44;;;;;;;22.50;14.50;;;;;;;6.15;100.00;102420.94;6218119;23;20705;-88
2021/12/14 05:22:11;;;;;;;23.05;14.23;;;;;;;6.29;100.00;102450.09;6217703;23;20004;-88
2021/12/14 05:24:45;;;;;;;24.80;14.73;;;;;;;6.52;100.00;102486.63;6244897;23;19999;-88
2021/12/14 05:27:16;;;;;;;22.65;14.85;;;;;;;6.46;100.00;102480.81;6244943;23;20004;-89
2021/12/14 05:29:41;;;;;;;22.70;15.00;;;;;;;6.27;100.00;102448.53;6244855;23;20004;-88
2021/12/14 05:32:10;;;;;;;24.35;15.70;;;;;;;6.36;100.00;102466.50;6217730;23;20435;-87
2021/12/14 05:34:38;;;;;;;25.40;15.40;;;;;;;6.38;100.00;102471.75;6217888;23;20427;-88
2021/12/14 05:37:05;;;;;;;26.35;16.13;;;;;;;6.13;100.00;102442.63;6219837;23;20449;-88
2021/12/14 05:39:47;;;;;;;24.40;15.90;;;;;;;6.51;100.00;102488.47;6219779;23;20014;-88
2021/12/14 05:45:04;;;;;;;23.23;15.80;;;;;;;6.44;100.00;102476.59;6224187;23;20063;-88
2021/12/14 05:47:30;;;;;;;26.05;16.35;;;;;;;6.37;100.00;102475.47;6219845;23;20364;-88
2021/12/14 05:49:55;;;;;;;24.73;16.08;;;;;;;6.47;100.00;102495.16;6219496;23;20026;-87
2021/12/14 05:52:24;;;;;;;24.38;15.63;;;;;;;6.30;100.00;102467.97;6219055;23;20011;-88
2021/12/14 05:54:55;;;;;;;24.23;15.93;;;;;;;6.14;100.00;102436.25;6219574;23;20454;-88
2021/12/14 05:57:23;;;;;;;24.42;16.77;;;;;;;6.43;100.00;102489.19;6219812;23;20065;-87
2021/12/14 05:59:50;;;;;;;27.35;17.67;;;;;;;6.28;100.00;102467.25;6219556;23;20335;-88
2021/12/14 06:02:24;;;;;;;28.58;17.48;;;;;;;6.26;100.00;102468.41;6194737;23;20008;-87
2021/12/14 06:04:52;;;;;;;27.27;17.83;;;;;;;6.37;100.00;102497.03;6221321;23;20008;-88
2021/12/14 06:07:19;;;;;;;27.20;17.13;;;;;;;6.39;100.00;102500.44;6219890;23;20035;-88
2021/12/14 06:09:49;;;;;;;28.42;17.25;;;;;;;6.31;100.00;102485.00;6193857;23;20008;-88
2021/12/14 06:12:24;;;;;;;26.58;17.35;;;;;;;6.08;100.00;102438.69;6246126;23;20035;-88
2021/12/14 06:14:59;;;;;;;28.80;18.20;;;;;;;6.34;100.00;102497.34;6246205;23;20010;-88
2021/12/14 06:17:39;;;;;;;29.33;18.38;;;;;;;6.11;100.00;102458.13;6219427;23;20004;-87
2021/12/14 06:20:11;;;;;;;30.38;18.48;;;;;;;6.48;100.00;102518.41;6246009;23;20407;-88
2021/12/14 06:22:38;;;;;;;;;;;;;;;6.53;100.00;102523.38;6219645;23;20020;-88
2021/12/14 06:25:11;;;;;;;27.67;17.42;;;;;;;6.18;100.00;102485.31;6245983;23;19946;-87
2021/12/14 06:27:37;;;;;;;29.45;18.48;;;;;;;6.45;100.00;102521.41;6246190;22;20061;-90
2021/12/14 06:30:12;;;;;;;31.17;18.70;;;;;;;6.19;100.00;102486.19;6246335;23;20003;-89
2021/12/14 06:32:43;;;;;;;30.05;18.33;;;;;;;6.13;100.00;102476.81;6219595;23;20008;-93
2021/12/14 06:35:16;;;;;;;30.02;18.52;;;;;;;6.33;100.00;102501.88;6219662;23;20301;-85
2021/12/14 06:38:06;;;;;;;;;;;;;;;6.54;100.00;102520.53;6219899;23;20428;-88
2021/12/14 06:41:01;;;;;;;33.67;20.13;;;;;;;6.23;100.00;102472.25;6245769;23;19904;-89
2021/12/14 06:43:42;;;;;;;29.58;18.50;;;;;;;6.30;100.00;102491.38;6218924;23;20004;-89
2021/12/14 06:46:22;;;;;;;30.77;20.17;;;;;;;6.10;100.00;102459.09;6217632;23;20004;-90
2021/12/14 06:48:53;;;;;;;32.03;19.85;;;;;;;6.37;100.00;102514.06;6219238;23;20004;-90
2021/12/14 06:51:26;;;;;;;31.63;19.83;;;;;;;6.09;100.00;102464.63;6219373;23;20007;-90
2021/12/14 06:53:55;;;;;;;33.78;20.70;;;;;;;6.11;100.00;102482.38;6219430;23;20027;-90
2021/12/14 06:56:27;;;;;;;33.65;19.95;;;;;;;6.09;100.00;102487.03;6219156;23;20009;-89
2021/12/14 06:58:57;;;;;;;34.03;21.02;;;;;;;6.45;100.00;102549.25;6245918;23;20406;-89
2021/12/14 07:01:47;;;;;;;30.27;19.20;;;;;;;6.45;100.00;102545.66;6218554;23;20004;-89
2021/12/14 07:04:20;;;;;;;31.92;20.23;;;;;;;6.47;100.00;102549.09;6218807;23;20000;-89
2021/12/14 07:06:57;;;;;;;31.25;20.50;;;;;;;6.45;100.00;102551.94;6218858;23;20426;-89
2021/12/14 07:09:30;;;;;;;32.70;20.42;;;;;;;6.46;100.00;102553.63;6218416;23;20064;-89
2021/12/14 07:12:15;;;;;;;33.45;20.95;;;;;;;6.45;100.00;102551.94;6218679;23;20008;-89
2021/12/14 07:15:02;;;;;;;32.50;20.27;;;;;;;6.34;100.00;102540.47;6218093;23;20096;-89
2021/12/14 07:17:40;;;;;;;33.22;19.38;;;;;;;6.28;100.00;102523.03;6217845;23;20015;-90
2021/12/14 07:20:18;;;;;;;32.90;20.88;;;;;;;6.27;100.00;102532.09;6218410;23;20006;-89
2021/12/14 07:22:55;;;;;;;35.38;21.13;;;;;;;6.27;100.00;102548.28;6217803;23;20374;-89
2021/12/14 07:25:27;;;;;;;34.95;22.65;;;;;;;6.46;100.00;102580.59;6218458;23;20030;-90
2021/12/14 07:28:07;;;;;;;32.72;20.92;;;;;;;6.48;100.00;102578.59;6245963;23;20010;-90
2021/12/14 07:30:47;;;;;;;35.67;22.17;;;;;;;6.11;100.00;102527.31;6243643;22;20431;-89
2021/12/14 07:33:34;;;;;;;36.40;22.95;;;;;;;6.11;100.00;102527.31;6195673;23;20049;-90
2021/12/14 07:36:58;;;;;;;;;;;;;;;;;;;;;
2021/12/14 07:43:09;;;;;;;37.17;22.08;;;;;;;6.38;100.00;102577.78;6094357;23;20085;-90
2021/12/14 07:45:39;;;;;;;35.78;22.00;;;;;;;6.24;100.00;102553.97;6196073;23;20070;-90
2021/12/14 07:48:17;;;;;;;38.22;23.17;;;;;;;6.50;100.00;102597.34;6218687;23;20065;-90
2021/12/14 07:50:57;;;;;;;37.10;22.70;;;;;;;6.49;100.00;102601.03;6218296;23;20300;-89
2021/12/14 07:53:37;;;;;;;35.30;22.67;;;;;;;6.31;100.00;102579.34;6217823;23;20008;-89
2021/12/14 07:56:07;;;;;;;36.97;22.35;;;;;;;6.52;100.00;102618.75;6218991;23;20450;-90
2021/12/14 07:58:46;;;;;;;33.15;21.35;;;;;;;6.50;100.00;102618.91;6219211;23;20014;-90
2021/12/14 08:01:16;;;;;;;38.75;23.67;;;;;;;6.13;100.00;102555.81;6219277;23;20004;-90
2021/12/14 08:04:16;;;;;;;39.17;23.30;;;;;;;6.15;100.00;102566.47;6193772;23;20073;-90
2021/12/14 08:06:54;;;;;;;36.35;22.55;;;;;;;6.56;100.00;102626.41;6212619;23;20011;-90
2021/12/14 08:09:50;;;;;;;38.67;23.63;;;;;;;6.55;100.00;102622.00;6242598;23;20011;-89
2021/12/14 08:12:38;;;;;;;36.42;21.95;;;;;;;6.58;100.00;102637.06;6219004;23;20423;-89
2021/12/14 08:15:30;;;;;;;36.80;22.90;;;;;;;6.59;100.00;102631.50;6218248;23;20008;-89
2021/12/14 08:18:21;;;;;;;41.78;23.45;;;;;;;6.60;100.00;102627.84;6217167;23;20035;-89
2021/12/14 08:21:26;;;;;;;37.45;22.38;;;;;;;6.24;100.00;102568.28;6218646;23;20008;-89
2021/12/14 08:23:54;;;;;;;38.72;23.80;;;;;;;6.61;100.00;102623.28;6244910;23;20020;-89
2021/12/14 08:26:58;;;;;;;37.40;23.23;;;;;;;6.63;100.00;102621.31;6218043;23;20450;-89
2021/12/14 08:29:30;;;;;;;38.25;23.83;;;;;;;6.47;100.00;102603.88;6213344;23;20386;-89
2021/12/14 08:32:01;;;;;;;39.20;23.95;;;;;;;6.65;100.00;102630.94;6245292;23;20331;-89
2021/12/14 08:34:31;;;;;;;39.05;24.80;;;;;;;6.62;100.00;102619.59;6244791;23;20058;-89
2021/12/14 08:37:14;;;;;;;36.47;22.35;;;;;;;6.71;100.00;102631.34;6218006;23;20388;-89
2021/12/14 08:40:02;;;;;;;38.33;23.38;;;;;;;6.75;100.00;102625.53;6217966;23;20004;-89
2021/12/14 08:42:39;;;;;;;38.60;23.55;;;;;;;6.73;100.00;102634.75;6218114;23;20050;-89
2021/12/14 08:45:25;;;;;;;40.53;24.42;;;;;;;6.50;100.00;102600.88;6217667;23;20004;-88
2021/12/14 08:47:55;;;;;;;38.90;24.10;;;;;;;6.63;100.00;102616.75;6245134;23;20107;-89
2021/12/14 08:50:21;;;;;;;38.38;24.75;;;;;;;6.81;100.00;102637.56;6244446;22;20339;-89
2021/12/14 08:52:49;;;;;;;38.95;24.05;;;;;;;6.65;100.00;102603.94;6244738;23;20079;-89
2021/12/14 08:55:16;;;;;;;38.88;24.10;;;;;;;6.73;100.00;102616.72;6193484;23;20008;-89
2021/12/14 08:57:42;;;;;;;36.85;24.27;;;;;;;6.76;100.00;102624.53;6218290;23;20007;-89
2021/12/14 09:00:18;;;;;;;36.17;23.15;;;;;;;6.66;100.00;102602.13;6192886;23;20362;-89
2021/12/14 09:02:46;;;;;;;39.78;24.70;;;;;;;6.60;100.00;102583.81;6244293;23;20376;-89
2021/12/14 09:05:48;;;;;;;38.25;23.48;;;;;;;7.02;100.00;102640.06;6244450;23;20075;-89
2021/12/14 09:08:20;;;;;;;40.70;25.13;;;;;;;6.87;100.00;102620.78;6217846;23;20501;-89
2021/12/14 09:10:57;;;;;;;37.17;24.08;;;;;;;6.68;100.00;102586.63;6217964;23;20062;-89
2021/12/14 09:13:24;;;;;;;39.00;25.27;;;;;;;6.89;100.00;102608.00;6217540;23;20004;-89
2021/12/14 09:15:59;;;;;;;41.30;23.90;;;;;;;7.07;100.00;102626.97;6217697;23;20027;-89
2021/12/14 09:18:34;;;;;;;37.03;24.13;;;;;;;7.07;100.00;102607.22;6244852;23;20442;-89
2021/12/14 09:21:05;;;;;;;37.83;23.33;;;;;;;7.03;100.00;102612.06;6217397;23;20054;-90
2021/12/14 09:23:37;;;;;;;37.17;23.60;;;;;;;6.97;100.00;102588.38;6244490;23;20099;-89
2021/12/14 09:26:07;;;;;;;37.17;23.58;;;;;;;7.02;100.00;102595.00;6217753;23;20324;-89
2021/12/14 09:28:35;;;;;;;36.13;23.80;;;;;;;7.08;100.00;102598.13;6244278;23;20008;-89
2021/12/14 09:31:09;;;;;;;33.80;23.27;;;;;;;7.25;99.91;102624.34;6245037;23;20050;-89
2021/12/14 09:33:39;;;;;;;38.50;25.25;;;;;;;7.13;100.00;102598.50;6244374;23;20478;-89
2021/12/14 09:43:47;;;;;;;38.33;24.98;;;;;;;7.34;100.00;102592.88;6140368;23;20477;-94
2021/12/14 09:46:24;;;;;;;37.58;24.10;;;;;;;7.34;99.59;102590.19;6091798;23;20081;-92
2021/12/14 09:52:22;;;;;;;36.28;23.83;;;;;;;7.53;99.22;102622.47;6124781;23;20030;-90
2021/12/14 09:54:52;;;;;;;37.97;25.08;;;;;;;7.63;99.32;102635.91;6242281;23;20004;-89
2021/12/14 09:57:32;;;;;;;36.83;24.77;;;;;;;7.69;99.69;102631.72;6193390;23;20011;-89
2021/12/14 10:00:05;;;;;;;38.05;25.45;;;;;;;7.62;99.29;102609.91;6218089;23;20008;-90
2021/12/14 10:02:43;;;;;;;40.10;25.70;;;;;;;7.59;98.93;102601.22;6218666;23;20004;-92
2021/12/14 10:08:32;;;;;;;37.17;24.13;;;;;;;7.83;99.05;102633.06;6245587;23;20008;-96
2021/12/14 10:11:07;;;;;;;37.55;24.60;;;;;;;7.75;98.39;102606.84;6218201;23;20344;-91
2021/12/14 10:13:42;;;;;;;36.90;24.55;;;;;;;7.62;97.86;102571.22;6217938;23;20054;-90
2021/12/14 10:16:23;;;;;;;36.28;24.23;;;;;;;8.05;98.25;102639.88;6218956;23;20012;-91
2021/12/14 10:19:09;;;;;;;38.60;24.88;;;;;;;7.73;97.60;102579.09;6219779;23;20378;-96
2021/12/14 10:22:23;;;;;;;;;;;;;;;;;;;;;
2021/12/14 10:28:46;;;;;;;37.78;25.08;;;;;;;8.43;96.91;102635.97;6250104;23;20063;-95
2021/12/14 10:31:41;;;;;;;37.42;24.33;;;;;;;8.44;96.43;102642.25;6219551;23;20012;-92
2021/12/14 10:34:17;;;;;;;40.80;24.98;;;;;;;8.08;95.94;102589.03;6200218;23;20337;-88
2021/12/14 10:36:47;;;;;;;36.40;24.55;;;;;;;8.13;95.88;102596.69;6246883;23;20004;-88
2021/12/14 10:45:04;;;;;;;38.25;24.45;;;;;;;8.04;95.58;102589.50;6247535;23;20054;-96
2021/12/14 10:47:34;;;;;;;38.78;24.52;;;;;;;8.03;95.89;102593.22;6196239;23;20386;-95
2021/12/14 10:50:19;;;;;;;35.83;23.63;;;;;;;8.03;96.38;102599.47;6221291;23;20004;-94
2021/12/14 10:56:11;;;;;;;39.92;25.15;;;;;;;8.50;95.70;102630.78;6230822;23;20058;-90
2021/12/14 10:58:38;;;;;;;40.58;25.27;;;;;;;8.27;94.99;102595.28;6219316;23;20004;-91
2021/12/14 11:01:19;;;;;;;43.30;26.27;;;;;;;8.53;94.91;102637.75;6218460;23;20499;-88
2021/12/14 11:03:52;;;;;;;37.15;25.10;;;;;;;8.24;95.20;102590.19;6219536;23;20000;-87
2021/12/14 11:07:14;;;;;;;;;;;;;;;8.68;95.94;102636.19;6221167;23;20004;-93
2021/12/14 11:09:59;;;;;;;;;;;;;;;;;;;;;
2021/12/14 11:13:07;;;;;;;37.20;23.88;;;;;;;8.50;95.64;102641.63;6227832;23;20083;-96
2021/12/14 11:15:55;;;;;;;40.60;25.23;;;;;;;8.15;95.66;102574.88;6205631;23;20427;-93
2021/12/14 11:22:08;;;;;;;39.22;26.33;;;;;;;8.40;95.30;102555.16;6088555;23;20010;-93
2021/12/14 11:24:46;;;;;;;38.92;25.80;;;;;;;8.46;93.94;102563.66;6225604;23;20039;-94
2021/12/14 11:28:17;;;;;;;40.50;25.65;;;;;;;8.46;94.42;102561.81;6222528;23;20008;-95
2021/12/14 11:31:06;;;;;;;38.28;25.08;;;;;;;8.66;94.42;102589.47;6101805;23;20361;-95
2021/12/14 11:34:15;;;;;;;39.58;25.50;;;;;;;8.46;94.29;102553.69;6099649;23;20425;-95
2021/12/14 11:37:13;;;;;;;;;;;;;;;;;;;;;
2021/12/14 11:40:26;;;;;;;;;;;;;;;;;;;;;
2021/12/14 11:43:48;;;;;;;45.97;27.17;;;;;;;8.76;94.46;102603.75;6218600;23;20078;-95
2021/12/14 11:46:50;;;;;;;;;;;;;;;;;;;;;
2021/12/14 11:49:42;;;;;;;40.03;25.83;;;;;;;8.65;94.45;102587.81;6245137;23;20074;-94
2021/12/14 11:52:52;;;;;;;;;;;;;;;;;;;;;
2021/12/14 11:55:30;;;;;;;44.63;26.40;;;;;;;8.76;94.54;102602.91;6247253;23;20780;-91
2021/12/14 11:58:16;;;;;;;44.90;27.90;;;;;;;8.66;94.96;102586.78;6219334;23;20499;-92
2021/12/14 12:00:58;;;;;;;40.83;27.02;;;;;;;8.48;94.66;102557.06;6219522;23;20019;-92
2021/12/14 12:03:58;;;;;;;42.20;26.83;;;;;;;8.73;94.52;102603.22;6219353;23;20402;-92
2021/12/14 12:09:28;;;;;;;47.53;28.42;;;;;;;8.53;95.24;102584.50;6246428;23;20035;-91
2021/12/14 12:12:03;;;;;;;43.83;28.60;;;;;;;8.67;95.42;102610.13;6220586;23;20014;-91
2021/12/14 12:14:52;;;;;;;46.42;28.92;;;;;;;8.32;95.30;102546.97;6216086;23;20012;-90
2021/12/14 12:17:20;;;;;;;43.45;28.10;;;;;;;8.65;95.16;102606.75;6217872;23;20012;-90
2021/12/14 12:20:05;;;;;;;48.55;28.20;;;;;;;8.22;95.89;102547.09;6217772;23;20004;-90
2021/12/14 12:22:45;;;;;;;44.63;28.30;;;;;;;8.43;95.92;102595.41;6217966;23;20328;-90
2021/12/14 12:25:20;;;;;;;45.03;28.98;;;;;;;8.49;96.46;102612.03;6217783;23;20375;-90
2021/12/14 12:28:01;;;;;;;45.40;28.83;;;;;;;8.22;96.56;102560.59;6218036;23;20066;-90
2021/12/14 12:30:51;;;;;;;46.63;29.25;;;;;;;8.33;96.94;102583.84;6217806;23;20038;-90
2021/12/14 12:33:35;;;;;;;48.38;30.08;;;;;;;8.26;96.67;102556.56;6217834;23;20070;-90
2021/12/14 12:36:28;;;;;;;49.45;30.17;;;;;;;8.65;96.95;102614.88;6217970;23;20054;-90
2021/12/14 12:39:18;;;;;;;49.95;29.95;;;;;;;8.33;96.69;102559.50;6242564;23;20011;-90
2021/12/14 12:42:00;;;;;;;46.22;29.25;;;;;;;8.38;96.82;102567.13;6218094;23;20026;-90
2021/12/14 12:44:32;;;;;;;48.55;29.75;;;;;;;8.51;96.69;102578.41;6217997;23;20011;-90
2021/12/14 12:47:10;;;;;;;;;;;;;;;8.73;97.04;102604.06;6218679;23;20461;-90
2021/12/14 12:49:42;;;;;;;48.03;29.77;;;;;;;8.24;97.19;102536.09;6244805;23;19914;-90
2021/12/14 12:52:29;;;;;;;48.55;29.00;;;;;;;8.55;97.10;102587.06;6244939;23;20000;-91
2021/12/14 12:55:16;;;;;;;45.15;28.55;;;;;;;8.29;97.55;102541.88;6218409;23;20011;-91
2021/12/14 12:57:42;;;;;;;47.03;30.00;;;;;;;8.65;97.20;102600.47;6218453;23;20031;-91
2021/12/14 13:00:35;;;;;;;47.13;28.55;;;;;;;8.64;97.73;102596.91;6219199;23;20367;-91
2021/12/14 13:03:01;;;;;;;49.72;30.33;;;;;;;8.64;97.47;102598.78;6217973;23;20031;-90
2021/12/14 13:05:38;;;;;;;52.63;30.85;;;;;;;8.22;98.22;102543.50;6218698;23;20399;-91
2021/12/14 13:08:16;;;;;;;52.03;31.33;;;;;;;8.52;98.61;102598.16;6218416;23;20011;-91